createdAt,value
2022-09-04T00:00:43.329Z,23.67
2022-09-04T00:05:51.799Z,23.17
2022-09-04T00:10:52.660Z,25.48
2022-09-04T00:15:52.950Z,23.00
2022-09-04T00:20:57.820Z,23.98
2022-09-04T00:26:23.281Z,26.48
2022-09-04T00:31:20.147Z,26.98
2022-09-04T00:36:40.148Z,25.75
2022-09-04T00:41:56.218Z,25.77
2022-09-04T00:47:14.165Z,24.63
2022-09-04T00:52:45.893Z,24.17
2022-09-04T00:57:58.104Z,83.47
2022-09-04T01:03:06.728Z,84.32
2022-09-04T01:08:24.675Z,31.85
2022-09-04T01:13:25.877Z,25.58
2022-09-04T01:18:34.108Z,26.13
2022-09-04T01:23:32.526Z,27.25
2022-09-04T01:28:47.862Z,24.88
2022-09-04T01:34:07.716Z,27.73
2022-09-04T01:39:03.579Z,28.30
2022-09-04T01:43:57.399Z,27.75
2022-09-04T01:49:12.084Z,25.85
2022-09-04T01:54:19.644Z,26.13
2022-09-04T01:59:57.813Z,24.27
2022-09-04T02:05:06.330Z,24.27
2022-09-04T02:10:26.755Z,23.30
2022-09-04T02:15:22.906Z,22.90
2022-09-04T02:20:28.245Z,20.27
2022-09-04T02:25:53.525Z,23.60
2022-09-04T02:31:15.334Z,26.17
2022-09-04T02:36:14.135Z,24.75
2022-09-04T02:41:56.263Z,22.40
2022-09-04T02:47:59.389Z,25.65
2022-09-04T02:53:05.747Z,25.45
2022-09-04T02:58:15.534Z,23.92
2022-09-04T03:03:41.672Z,24.33
2022-09-04T03:08:54.076Z,22.92
2022-09-04T03:14:13.040Z,22.30
2022-09-04T03:19:22.453Z,21.38
2022-09-04T03:24:35.066Z,23.27
2022-09-04T03:29:31.317Z,24.63
2022-09-04T03:34:49.011Z,25.20
2022-09-04T03:40:16.084Z,24.02
2022-09-04T03:46:15.022Z,23.25
2022-09-04T03:51:18.552Z,21.23
2022-09-04T03:56:13.781Z,20.23
2022-09-04T04:01:31.789Z,23.30
2022-09-04T04:06:36.148Z,22.73
2022-09-04T04:11:48.441Z,34.40
2022-09-04T04:17:03.532Z,24.50
2022-09-04T04:22:15.571Z,20.70
2022-09-04T04:27:23.602Z,21.08
2022-09-04T04:32:44.921Z,19.17
2022-09-04T04:38:28.716Z,18.00
2022-09-04T04:44:03.253Z,19.92
2022-09-04T04:49:40.662Z,19.55
2022-09-04T04:55:19.297Z,19.50
2022-09-04T05:00:26.737Z,18.27
2022-09-04T05:05:41.814Z,20.10
2022-09-04T05:10:45.406Z,20.42
2022-09-04T05:16:09.879Z,21.98
2022-09-04T05:21:24.342Z,21.85
2022-09-04T05:26:25.108Z,19.35
2022-09-04T05:31:18.176Z,19.83
2022-09-04T05:36:34.779Z,21.25
2022-09-04T05:41:51.004Z,21.30
2022-09-04T05:47:12.728Z,22.38
2022-09-04T05:52:15.966Z,23.23
2022-09-04T05:57:28.247Z,23.15
2022-09-04T06:02:30.018Z,21.88
2022-09-04T06:07:29.693Z,23.23
2022-09-04T06:12:35.422Z,23.20
2022-09-04T06:18:04.309Z,22.20
2022-09-04T06:23:30.677Z,21.58
2022-09-04T06:28:24.474Z,19.98
2022-09-04T06:33:43.573Z,18.52
2022-09-04T06:39:01.154Z,19.10
2022-09-04T06:44:02.197Z,19.67
2022-09-04T06:49:07.353Z,19.33
2022-09-04T06:54:28.806Z,18.90
2022-09-04T06:59:50.284Z,20.90
2022-09-04T07:05:01.814Z,16.98
2022-09-04T07:10:16.253Z,17.00
2022-09-04T07:15:28.218Z,17.90
2022-09-04T07:20:50.234Z,18.30
2022-09-04T07:26:21.495Z,14.40
2022-09-04T07:31:57.309Z,12.23
2022-09-04T07:37:02.426Z,12.57
2022-09-04T07:42:33.214Z,10.95
2022-09-04T07:47:36.183Z,9.50
2022-09-04T07:52:45.721Z,9.55
2022-09-04T07:58:09.236Z,8.57
2022-09-04T08:03:25.818Z,10.23
2022-09-04T08:08:32.023Z,11.05
2022-09-04T08:13:43.513Z,7.45
2022-09-04T08:19:04.733Z,7.55
2022-09-04T08:24:12.903Z,8.27
2022-09-04T08:29:32.418Z,7.00
2022-09-04T08:34:41.493Z,6.53
2022-09-04T08:39:51.353Z,6.57
2022-09-04T08:45:26.068Z,9.35
2022-09-04T08:50:43.049Z,7.95
2022-09-04T08:56:10.933Z,10.43
2022-09-04T09:01:10.356Z,11.38
2022-09-04T09:06:33.866Z,9.82
2022-09-04T09:11:33.051Z,10.88
2022-09-04T09:16:52.599Z,13.82
2022-09-04T09:21:51.237Z,12.18
2022-09-04T09:27:11.901Z,10.27
2022-09-04T09:32:34.840Z,8.80
2022-09-04T09:42:38.300Z,8.95
2022-09-04T09:47:49.695Z,9.82
2022-09-04T09:53:01.276Z,9.88
2022-09-04T09:58:15.255Z,10.88
2022-09-04T10:03:27.036Z,9.70
2022-09-04T10:08:36.409Z,8.55
2022-09-04T10:13:53.461Z,12.85
2022-09-04T10:19:09.659Z,10.60
2022-09-04T10:24:27.572Z,9.25
2022-09-04T10:29:45.778Z,7.53
2022-09-04T10:34:59.623Z,7.25
2022-09-04T10:40:29.367Z,4.75
2022-09-04T10:45:48.752Z,7.47
2022-09-04T10:51:04.760Z,7.03
2022-09-04T10:56:04.403Z,4.53
2022-09-04T11:01:31.171Z,5.50
2022-09-04T11:06:53.940Z,5.13
2022-09-04T11:12:05.492Z,5.65
2022-09-04T11:17:14.129Z,6.75
2022-09-04T11:22:17.909Z,5.90
2022-09-04T11:27:45.462Z,5.85
2022-09-04T11:33:16.979Z,6.00
2022-09-04T11:38:17.941Z,5.33
2022-09-04T11:43:14.803Z,5.78
2022-09-04T11:48:19.860Z,6.10
2022-09-04T11:53:50.813Z,5.78
2022-09-04T11:59:06.978Z,4.78
2022-09-04T12:04:26.653Z,4.95
2022-09-04T12:09:50.174Z,4.85
2022-09-04T12:15:07.527Z,5.32
2022-09-04T12:20:29.824Z,4.10
2022-09-04T12:26:01.709Z,4.20
2022-09-04T12:30:57.483Z,4.18
2022-09-04T12:36:23.896Z,3.83
2022-09-04T12:41:24.791Z,3.63
2022-09-04T12:46:30.038Z,3.70
2022-09-04T12:51:25.591Z,4.03
2022-09-04T12:56:49.051Z,3.78
2022-09-04T13:02:13.249Z,3.65
2022-09-04T13:07:41.494Z,3.58
2022-09-04T13:13:28.440Z,3.20
2022-09-04T13:18:54.781Z,3.55
2022-09-04T13:23:50.872Z,3.60
2022-09-04T13:29:13.207Z,3.58
2022-09-04T13:34:27.927Z,3.85
2022-09-04T13:40:02.026Z,3.25
2022-09-04T13:45:02.828Z,3.60
2022-09-04T13:50:12.886Z,4.15
2022-09-04T13:55:43.921Z,4.15
2022-09-04T14:01:07.733Z,3.30
2022-09-04T14:06:03.767Z,3.47
2022-09-04T14:11:22.906Z,3.47
2022-09-04T14:16:17.010Z,3.50
2022-09-04T14:21:30.973Z,3.60
2022-09-04T14:26:33.469Z,3.30
2022-09-04T14:31:34.180Z,3.80
2022-09-04T14:36:36.282Z,3.67
2022-09-04T14:41:36.184Z,3.72
2022-09-04T14:46:35.588Z,3.40
2022-09-04T14:51:29.207Z,3.60
2022-09-04T14:56:46.019Z,3.17
2022-09-04T15:02:31.262Z,3.38
2022-09-04T15:07:42.651Z,3.80
2022-09-04T15:12:38.867Z,3.60
2022-09-04T15:17:33.250Z,3.53
2022-09-04T15:22:50.047Z,3.72
2022-09-04T15:28:02.549Z,3.17
2022-09-04T15:33:08.247Z,3.38
2022-09-04T15:38:23.331Z,3.22
2022-09-04T15:43:16.767Z,3.10
2022-09-04T15:48:39.219Z,2.90
2022-09-04T15:53:37.332Z,3.55
2022-09-04T15:59:16.633Z,3.25
2022-09-04T16:04:37.077Z,3.42
2022-09-04T16:09:49.850Z,3.72
2022-09-04T16:14:56.378Z,3.40
2022-09-04T16:20:21.075Z,3.67
2022-09-04T16:25:31.073Z,3.63
2022-09-04T16:30:39.236Z,2.92
2022-09-04T16:35:36.788Z,3.20
2022-09-04T16:40:32.378Z,3.00
2022-09-04T16:45:34.014Z,3.20
2022-09-04T16:50:36.569Z,3.45
2022-09-04T16:55:37.129Z,3.50
2022-09-04T17:01:13.602Z,3.28
2022-09-04T17:06:23.989Z,3.20
2022-09-04T17:11:42.793Z,3.05
2022-09-04T17:16:53.038Z,3.80
2022-09-04T17:27:56.931Z,3.35
2022-09-04T17:29:19.069Z,3.88
2022-09-04T17:40:43.843Z,3.95
2022-09-04T17:40:48.978Z,4.07
2022-09-04T17:45:48.624Z,4.00
2022-09-04T17:50:58.394Z,4.18
2022-09-04T17:55:57.144Z,4.10
2022-09-04T18:01:14.136Z,5.25
2022-09-04T18:06:30.615Z,7.03
2022-09-04T18:12:05.465Z,9.00
2022-09-04T18:17:12.626Z,10.95
2022-09-04T18:22:33.658Z,6.75
2022-09-04T18:28:11.405Z,4.47
2022-09-04T18:37:26.042Z,4.60
2022-09-04T18:39:09.100Z,4.90
2022-09-04T18:50:21.702Z,4.88
2022-09-04T18:50:53.076Z,4.22
2022-09-04T18:55:15.234Z,4.97
2022-09-04T19:00:14.334Z,4.38
2022-09-04T19:05:14.551Z,4.10
2022-09-04T19:10:23.132Z,4.57
2022-09-04T19:15:36.789Z,4.57
2022-09-04T19:20:45.863Z,5.45
2022-09-04T19:25:44.152Z,5.10
2022-09-04T19:30:59.905Z,5.45
2022-09-04T19:46:14.378Z,5.15
2022-09-04T19:46:28.186Z,6.05
2022-09-04T19:53:24.359Z,5.75
2022-09-04T19:57:32.489Z,5.60
2022-09-04T20:02:44.227Z,5.00
2022-09-04T20:07:41.485Z,5.65
2022-09-04T20:12:51.032Z,6.22
2022-09-04T20:18:04.027Z,6.72
2022-09-04T20:23:34.199Z,6.18
2022-09-04T20:29:09.816Z,5.78
2022-09-04T20:34:21.889Z,5.70
2022-09-04T20:39:34.559Z,6.20
2022-09-04T20:44:45.862Z,6.20
2022-09-04T20:52:53.303Z,5.53
2022-09-04T20:55:35.920Z,6.05
2022-09-04T21:03:10.954Z,6.32
2022-09-04T21:06:04.342Z,5.60
2022-09-04T21:11:03.795Z,5.15
2022-09-04T21:16:36.713Z,5.68
2022-09-04T21:21:43.645Z,5.30
2022-09-04T21:27:22.903Z,6.30
2022-09-04T21:32:46.931Z,5.43
2022-09-04T21:38:19.361Z,5.25
2022-09-04T21:43:25.017Z,4.72
2022-09-04T21:49:07.915Z,5.20
2022-09-04T21:54:29.900Z,5.40
2022-09-04T22:02:37.029Z,4.97
2022-09-04T22:05:23.643Z,5.18
2022-09-04T22:13:40.091Z,6.00
2022-09-04T22:16:09.382Z,6.50
2022-09-04T22:21:25.690Z,6.25
2022-09-04T22:26:27.659Z,6.90
2022-09-04T22:31:24.829Z,6.57
2022-09-04T22:36:46.196Z,6.40
2022-09-04T22:42:10.067Z,6.60
2022-09-04T22:47:45.087Z,6.30
2022-09-04T22:53:09.104Z,6.68
2022-09-04T22:58:42.518Z,6.38
2022-09-04T23:03:45.819Z,6.43
2022-09-04T23:13:50.102Z,6.55
2022-09-04T23:14:41.184Z,6.47
2022-09-04T23:24:59.591Z,5.90
2022-09-04T23:26:50.902Z,5.93
2022-09-04T23:30:25.598Z,5.63
2022-09-04T23:35:33.157Z,5.13
2022-09-04T23:40:47.805Z,5.93
2022-09-04T23:46:01.157Z,6.45
2022-09-04T23:51:29.676Z,7.05
2022-09-04T23:56:46.356Z,6.72
